Time;durP1;ratioP1;P1;durP2;ratioP2;P2;SDS_P1;SDS_P2;PMS_P1;PMS_P2;Temp;Humidity;BMP_temperature;BMP_pressure;BME280_temperature;BME280_humidity;BME280_pressure;Samples;Min_cycle;Max_cycle;Signal;HPM_P1;HPM_P2
2022/05/22 00:00:42;;;;;;;2.20;2.00;;;18.50;62.00;;;-142.21;92.68;112049.66;5084576;28;20521;-70
2022/05/22 00:03:09;;;;;;;1.60;1.50;;;18.40;61.90;;;-142.21;92.47;112049.66;5088813;28;20454;-71
2022/05/22 00:05:37;;;;;;;2.07;1.90;;;18.40;61.70;;;-142.21;92.34;112049.66;5083155;28;20974;-71
2022/05/22 00:08:05;;;;;;;5.20;2.40;;;18.30;61.60;;;-142.21;92.44;112049.66;5075305;28;20526;-71
2022/05/22 00:10:32;;;;;;;1.90;1.80;;;18.30;61.60;;;-142.21;92.56;112049.66;5083091;28;20442;-71
2022/05/22 00:12:59;;;;;;;2.23;2.00;;;18.20;61.70;;;-142.21;92.44;112049.66;5072160;28;20581;-71
2022/05/22 00:15:27;;;;;;;2.60;2.07;;;18.20;61.70;;;-142.21;93.10;112049.66;5074412;28;20545;-71
2022/05/22 00:17:55;;;;;;;2.70;1.77;;;18.20;62.20;;;-142.21;93.00;112049.66;5074711;28;20447;-70
2022/05/22 00:20:22;;;;;;;2.40;2.20;;;18.20;62.20;;;-142.21;92.74;112049.66;5080584;28;20448;-71
2022/05/22 00:22:49;;;;;;;1.93;1.73;;;18.10;62.10;;;-142.21;93.05;112049.66;5074460;28;20492;-70
2022/05/22 00:25:17;;;;;;;1.90;1.70;;;18.10;62.00;;;-142.21;93.38;112049.66;5075674;28;20467;-70
2022/05/22 00:27:44;;;;;;;2.33;1.80;;;18.10;62.20;;;-142.21;93.55;112049.66;5076656;28;20482;-71
2022/05/22 00:30:14;;;;;;;2.10;1.90;;;18.10;62.30;;;-142.21;93.57;112049.66;5083755;28;20443;-70
2022/05/22 00:32:42;;;;;;;3.90;2.27;;;18.00;62.20;;;-142.21;93.71;112049.66;5088642;28;20498;-70
2022/05/22 00:35:11;;;;;;;3.20;2.03;;;18.00;62.20;;;-142.21;93.71;112049.66;5081460;28;20451;-71
2022/05/22 00:37:38;;;;;;;2.20;2.00;;;18.00;62.50;;;-142.21;93.66;112049.66;5095103;28;20443;-70
2022/05/22 00:40:08;;;;;;;1.93;1.80;;;18.00;62.40;;;-142.21;94.34;112049.66;5091851;28;20446;-70
2022/05/22 00:42:35;;;;;;;2.53;2.13;;;17.90;62.50;;;-142.21;94.50;112049.66;5083542;28;20461;-71
2022/05/22 00:45:02;;;;;;;4.77;2.10;;;17.90;62.60;;;-142.21;95.05;112049.66;5093004;28;20542;-69
2022/05/22 00:47:29;;;;;;;2.37;1.80;;;17.80;62.80;;;-142.21;94.91;112049.66;5092931;28;20454;-70
2022/05/22 00:50:00;;;;;;;4.13;2.27;;;17.80;62.80;;;-142.21;95.09;112049.66;5088154;28;20986;-70
2022/05/22 00:52:37;;;;;;;2.50;1.90;;;17.70;63.00;;;-142.21;95.31;112049.66;5066472;28;20470;-71
2022/05/22 00:55:14;;;;;;;2.20;2.00;;;17.70;63.20;;;-142.21;95.16;112049.66;5095380;28;20426;-75
2022/05/22 00:57:48;;;;;;;3.93;2.10;;;17.70;63.20;;;-142.21;95.29;112049.66;5093196;28;20526;-74
2022/05/22 01:00:21;;;;;;;2.50;1.70;;;17.70;63.20;;;-142.21;95.14;112049.66;5082129;28;20462;-75
2022/05/22 01:05:35;;;;;;;2.00;1.80;;;17.60;63.20;;;-142.21;94.81;112049.66;5088197;28;20473;-74
2022/05/22 01:08:05;;;;;;;1.70;1.60;;;17.60;63.10;;;-142.21;94.70;112049.66;5094611;28;20461;-75
2022/05/22 01:10:46;;;;;;;2.00;1.90;;;17.50;63.00;;;-142.21;94.82;112049.66;5094365;28;20515;-76
2022/05/22 01:13:17;;;;;;;3.87;2.20;;;17.50;63.10;;;-142.21;94.83;112049.66;5078372;28;20557;-74
2022/05/22 01:15:45;;;;;;;2.00;1.87;;;17.50;63.00;;;-142.21;94.65;112049.66;5076031;28;20505;-77
2022/05/22 01:18:12;;;;;;;2.13;1.93;;;17.50;62.90;;;-142.21;95.09;112049.66;5087511;28;20462;-76
2022/05/22 01:20:47;;;;;;;2.53;2.20;;;17.50;63.00;;;-142.21;94.91;112049.66;5084178;28;20443;-76
2022/05/22 01:23:17;;;;;;;1.70;1.60;;;17.50;63.10;;;-142.21;94.94;112049.66;5069841;28;20928;-75
2022/05/22 01:25:44;;;;;;;1.97;1.80;;;17.50;63.00;;;-142.21;94.88;112049.66;5065668;28;20506;-75
2022/05/22 01:28:16;;;;;;;2.60;1.80;;;17.50;63.00;;;-142.21;94.71;112049.66;5083457;28;20492;-75
2022/05/22 01:30:44;;;;;;;2.00;1.90;;;17.40;62.90;;;-142.21;95.31;112049.66;5085661;28;20439;-76
2022/05/22 01:33:11;;;;;;;1.87;1.77;;;17.40;63.20;;;-142.21;94.91;112049.66;5083433;28;20488;-76
2022/05/22 01:35:38;;;;;;;2.53;1.90;;;17.40;63.10;;;-142.21;95.00;112049.66;5067432;28;20451;-76
2022/05/22 01:38:07;;;;;;;2.00;1.90;;;17.40;63.00;;;-142.21;94.59;112049.66;5083281;28;20513;-75
2022/05/22 01:40:39;;;;;;;1.87;1.67;;;17.30;63.00;;;-142.21;94.75;112049.66;5086835;28;20876;-74
2022/05/22 01:43:06;;;;;;;2.33;2.00;;;17.30;63.00;;;-142.21;94.62;112049.66;5072040;28;20432;-76
2022/05/22 01:45:34;;;;;;;1.90;1.80;;;17.20;62.70;;;-142.21;94.63;112049.66;5063070;28;20537;-76
2022/05/22 01:48:02;;;;;;;2.50;1.83;;;17.20;62.80;;;-142.21;94.68;112049.66;5085362;28;20446;-76
2022/05/22 01:50:30;;;;;;;2.00;1.80;;;17.20;63.00;;;-142.21;94.78;112049.66;5071972;28;20439;-76
2022/05/22 01:52:57;;;;;;;1.80;1.70;;;17.10;62.90;;;-142.21;94.54;112049.66;5059169;28;20517;-77
2022/05/22 01:55:24;;;;;;;1.70;1.60;;;17.10;62.80;;;-142.21;94.36;112049.66;5082199;28;20828;-76
2022/05/22 01:57:52;;;;;;;3.37;1.73;;;17.10;63.30;;;-142.21;94.20;112049.66;5093028;28;20457;-76
2022/05/22 02:00:23;;;;;;;2.07;1.83;;;17.10;62.60;;;-142.21;94.31;112049.66;5093042;28;20450;-76
2022/05/22 02:02:50;;;;;;;2.00;1.70;;;17.10;62.70;;;-142.21;94.95;112049.66;5093709;28;20457;-76
2022/05/22 02:05:17;;;;;;;1.97;1.70;;;17.10;62.90;;;-142.21;95.17;112049.66;5092821;28;20985;-75
2022/05/22 02:10:31;;;;;;;2.20;1.90;;;17.00;63.20;;;-142.21;95.78;112049.66;5084777;28;20431;-75
2022/05/22 02:13:00;;;;;;;1.90;1.70;;;17.00;63.40;;;-142.21;95.42;112049.66;5081012;28;20484;-76
2022/05/22 02:15:29;;;;;;;1.77;1.67;;;17.00;63.30;;;-142.21;95.51;112049.66;5074362;28;20454;-74
2022/05/22 02:17:56;;;;;;;2.07;1.83;;;17.00;63.40;;;-142.21;95.77;112049.66;5086644;28;20443;-74
2022/05/22 02:20:24;;;;;;;2.30;1.77;;;17.00;63.60;;;-142.21;95.72;112049.66;5070588;28;20453;-77
2022/05/22 02:22:56;;;;;;;1.93;1.80;;;17.00;63.50;;;-142.21;95.64;112049.66;5071793;28;20472;-76
2022/05/22 02:25:27;;;;;;;2.03;1.90;;;17.00;63.40;;;-142.21;96.17;112049.66;5073996;28;20459;-75
2022/05/22 02:27:55;;;;;;;2.20;1.70;;;16.90;63.30;;;-142.21;96.30;112049.66;5073408;28;20531;-76
2022/05/22 02:30:28;;;;;;;1.80;1.70;;;16.90;63.30;;;-142.21;96.26;112049.66;5075933;28;20447;-76
2022/05/22 02:32:55;;;;;;;2.13;1.90;;;16.90;63.60;;;-142.21;96.43;112049.66;5070054;28;20488;-75
2022/05/22 02:35:22;;;;;;;2.23;1.70;;;16.80;63.50;;;-142.21;96.65;112049.66;5088151;28;20818;-76
2022/05/22 02:37:53;;;;;;;1.87;1.77;;;16.80;63.50;;;-142.21;96.84;112049.66;5073603;28;20446;-75
2022/05/22 02:40:23;;;;;;;3.40;1.87;;;16.80;63.80;;;-142.21;96.92;112049.66;5078557;28;20443;-76
2022/05/22 02:42:53;;;;;;;1.80;1.70;;;16.70;63.90;;;-142.21;97.26;112049.66;5071165;28;20443;-75
2022/05/22 02:45:25;;;;;;;1.70;1.60;;;16.70;63.90;;;-142.21;97.12;112049.66;5075427;28;20442;-75
2022/05/22 02:47:53;;;;;;;1.70;1.60;;;16.70;63.90;;;-142.21;96.81;112049.66;5110339;28;20427;-76
2022/05/22 02:50:34;;;;;;;1.67;1.57;;;16.60;63.80;;;-142.21;96.73;112049.66;5083831;28;20443;-75
2022/05/22 02:53:01;;;;;;;1.70;1.60;;;16.60;63.80;;;-142.21;96.88;112049.66;5090026;28;20454;-76
2022/05/22 02:55:28;;;;;;;2.03;1.73;;;16.60;63.80;;;-142.21;97.26;112049.66;5101005;28;20438;-75
2022/05/22 02:57:56;;;;;;;3.37;2.20;;;16.60;63.80;;;-142.21;97.43;112049.66;5095176;28;20440;-75
2022/05/22 03:00:27;;;;;;;2.00;1.80;;;16.60;63.90;;;-142.21;97.79;112049.66;5074082;28;20448;-76
2022/05/22 03:02:55;;;;;;;2.10;1.90;;;16.50;64.20;;;-142.21;97.74;112049.66;5091359;28;20831;-76
2022/05/22 03:05:26;;;;;;;2.00;1.90;;;16.40;64.20;;;-142.21;97.90;112049.66;5078816;28;20488;-76
2022/05/22 03:07:54;;;;;;;1.53;1.43;;;16.40;64.30;;;-142.21;97.91;112049.66;5080104;28;21004;-75
2022/05/22 03:10:22;;;;;;;2.10;1.73;;;16.40;64.40;;;-142.21;97.70;112049.66;5081532;28;20500;-76
2022/05/22 03:12:49;;;;;;;3.53;1.90;;;16.30;64.30;;;-142.21;97.53;112049.66;5079423;28;20493;-75
2022/05/22 03:15:17;;;;;;;2.27;1.90;;;16.40;64.40;;;-142.21;97.48;112049.66;5073850;28;20483;-76
2022/05/22 03:17:46;;;;;;;3.33;1.83;;;16.40;64.50;;;-142.21;97.54;112049.66;5092842;28;20450;-76
2022/05/22 03:20:13;;;;;;;2.00;1.67;;;16.40;64.60;;;-142.21;97.33;112049.66;5074896;28;20443;-76
2022/05/22 03:22:40;;;;;;;1.70;1.60;;;16.40;64.50;;;-142.21;97.15;112049.66;5072400;28;20441;-76
2022/05/22 03:25:09;;;;;;;1.90;1.80;;;16.40;64.30;;;-142.21;97.28;112049.66;5065020;28;20558;-77
2022/05/22 03:27:36;;;;;;;1.60;1.50;;;16.40;64.30;;;-142.21;97.61;112049.66;5091816;28;20775;-76
2022/05/22 03:30:06;;;;;;;1.60;1.50;;;16.30;64.40;;;-142.21;97.26;112049.66;5089650;28;20531;-75
2022/05/22 03:32:33;;;;;;;3.03;1.70;;;16.30;64.40;;;-142.21;97.46;112049.66;5071651;28;20582;-75
2022/05/22 03:35:02;;;;;;;2.23;1.50;;;16.30;64.10;;;-142.21;97.03;112049.66;5053778;28;20452;-78
2022/05/22 03:37:29;;;;;;;1.60;1.50;;;16.30;64.20;;;-142.21;96.73;112049.66;5051658;28;20444;-76
2022/05/22 03:39:57;;;;;;;2.70;1.40;;;16.30;63.90;;;-142.21;97.33;112049.66;5067615;28;20448;-76
2022/05/22 03:42:25;;;;;;;3.53;1.57;;;16.30;63.90;;;-142.21;97.44;112049.66;5071626;28;20443;-76
2022/05/22 03:44:55;;;;;;;1.50;1.37;;;16.30;64.00;;;-142.21;97.58;112049.66;5081470;28;20504;-76
2022/05/22 03:47:23;;;;;;;2.10;1.90;;;16.30;64.20;;;-142.21;97.55;112049.66;5091425;28;20522;-76
2022/05/22 03:49:50;;;;;;;3.60;1.53;;;16.20;64.10;;;-142.21;97.62;112049.66;5078530;28;20447;-76
2022/05/22 03:52:18;;;;;;;1.83;1.40;;;16.20;64.50;;;-142.21;97.63;112049.66;5077429;28;20529;-74
2022/05/22 03:54:46;;;;;;;1.77;1.67;;;16.20;64.50;;;-142.21;97.84;112049.66;5079303;28;20446;-75
2022/05/22 03:57:13;;;;;;;2.47;1.60;;;16.10;64.40;;;-142.21;97.98;112049.66;5063355;28;20483;-75
2022/05/22 03:59:42;;;;;;;2.80;1.63;;;16.10;64.50;;;-142.21;98.17;112049.66;5078928;28;20454;-76
2022/05/22 04:02:09;;;;;;;1.50;1.40;;;16.10;64.40;;;-142.21;98.04;112049.66;5075636;28;20453;-76
2022/05/22 04:04:37;;;;;;;3.13;1.53;;;16.00;64.30;;;-142.21;98.52;112049.66;5083937;28;20581;-76
2022/05/22 04:07:04;;;;;;;1.80;1.70;;;16.00;65.00;;;-142.21;98.64;112049.66;5077781;28;20448;-76
2022/05/22 04:09:33;;;;;;;1.90;1.60;;;16.00;64.50;;;-142.21;98.74;112049.66;5082214;28;20446;-74
2022/05/22 04:12:00;;;;;;;1.90;1.63;;;15.90;64.70;;;-142.21;99.21;112049.66;5079931;28;20496;-74
2022/05/22 04:14:27;;;;;;;3.07;2.47;;;16.00;65.00;;;-142.21;99.47;112049.66;5058148;28;20894;-75
2022/05/22 04:16:56;;;;;;;1.73;1.63;;;15.90;65.10;;;-142.21;100.00;112049.66;5057602;28;20450;-76
2022/05/22 04:19:23;;;;;;;1.97;1.70;;;15.90;65.50;;;-142.21;100.00;112049.66;5072820;28;20447;-75
2022/05/22 04:21:50;;;;;;;2.17;1.70;;;16.00;65.80;;;-142.21;100.00;112049.66;5075788;28;20467;-76
2022/05/22 04:27:07;;;;;;;1.93;1.80;;;16.00;66.10;;;-142.21;100.00;112049.66;5089613;28;20422;-75
2022/05/22 04:29:36;;;;;;;2.40;2.03;;;16.00;66.50;;;-142.21;100.00;112049.66;5093919;28;20438;-77
2022/05/22 04:32:04;;;;;;;2.33;1.93;;;16.00;66.20;;;-142.21;100.00;112049.66;5095670;28;20446;-76
2022/05/22 04:34:31;;;;;;;2.60;1.93;;;16.10;66.40;;;-142.21;100.00;112049.66;5094756;28;20489;-75
2022/05/22 04:36:59;;;;;;;6.00;2.90;;;16.10;66.30;;;-142.21;100.00;112049.66;5095411;28;20445;-75
2022/05/22 04:39:26;;;;;;;4.53;2.60;;;16.20;67.00;;;-142.21;100.00;112049.66;5077360;28;20453;-76
2022/05/22 04:41:53;;;;;;;4.03;2.10;;;16.20;66.90;;;-142.21;100.00;112049.66;5081703;28;20451;-77
2022/05/22 04:44:22;;;;;;;4.23;2.10;;;16.20;67.00;;;-142.21;100.00;112049.66;5076862;28;20534;-75
2022/05/22 04:46:49;;;;;;;2.33;1.83;;;16.30;68.00;;;-142.21;100.00;112049.66;5077593;28;20454;-76
2022/05/22 04:49:17;;;;;;;2.33;2.03;;;16.20;67.00;;;-142.21;100.00;112049.66;5075156;28;20448;-76
2022/05/22 04:51:48;;;;;;;2.70;1.70;;;16.30;67.00;;;-142.21;100.00;112049.66;5092898;28;20951;-76
2022/05/22 04:54:15;;;;;;;1.70;1.60;;;16.30;66.60;;;-142.21;100.00;112049.66;5056514;28;20488;-76
2022/05/22 04:56:42;;;;;;;2.03;1.70;;;16.40;66.40;;;-142.21;100.00;112049.66;5079079;28;20476;-76
2022/05/22 04:59:09;;;;;;;2.50;2.30;;;16.40;66.50;;;-142.21;100.00;112049.66;5074639;28;20958;-79
2022/05/22 05:01:37;;;;;;;2.23;2.03;;;16.40;66.20;;;-142.21;100.00;112049.66;5074278;28;20815;-77
2022/05/22 05:04:05;;;;;;;1.93;1.83;;;16.40;66.20;;;-142.21;100.00;112049.66;5055803;28;20479;-78
2022/05/22 05:06:32;;;;;;;2.30;2.10;;;16.50;66.60;;;-142.21;100.00;112049.66;5079606;28;20437;-78
2022/05/22 05:09:00;;;;;;;2.13;1.93;;;16.60;66.90;;;-142.21;100.00;112049.66;5095074;28;20863;-78
2022/05/22 05:11:28;;;;;;;2.23;1.90;;;16.60;66.60;;;-142.21;100.00;112049.66;5094012;28;20442;-79
2022/05/22 05:13:55;;;;;;;2.53;2.20;;;16.60;66.30;;;-142.21;100.00;112049.66;5095068;28;20517;-78
2022/05/22 05:16:22;;;;;;;4.97;2.17;;;16.70;66.40;;;-142.21;100.00;112049.66;5085679;28;20501;-79
2022/05/22 05:18:51;;;;;;;1.80;1.70;;;16.70;66.60;;;-142.21;100.00;112049.66;5074134;28;20959;-78
2022/05/22 05:21:19;;;;;;;3.03;2.10;;;16.70;67.20;;;-142.21;100.00;112049.66;5082586;28;20444;-76
2022/05/22 05:23:47;;;;;;;2.07;1.87;;;16.70;67.10;;;-142.21;100.00;112049.66;5094589;28;20519;-79
2022/05/22 05:26:14;;;;;;;2.07;1.80;;;16.80;67.30;;;-142.21;100.00;112049.66;5044383;28;20987;-79
2022/05/22 05:28:41;;;;;;;2.03;1.83;;;16.80;67.30;;;-142.21;100.00;112049.66;5080495;28;20790;-79
2022/05/22 05:31:08;;;;;;;1.90;1.70;;;16.80;67.40;;;-142.21;100.00;112049.66;5078769;28;20781;-79
2022/05/22 05:33:36;;;;;;;3.20;2.20;;;16.90;67.00;;;-142.21;100.00;112049.66;5057343;28;20505;-79
2022/05/22 05:36:10;;;;;;;2.83;2.00;;;16.90;67.70;;;-142.21;100.00;112049.66;5071836;28;20443;-79
2022/05/22 05:38:38;;;;;;;2.00;1.73;;;17.00;67.40;;;-142.21;100.00;112049.66;5035129;28;20502;-77
2022/05/22 05:41:05;;;;;;;3.60;2.27;;;17.00;67.20;;;-142.21;100.00;112049.66;5054163;28;20452;-77
2022/05/22 05:43:32;;;;;;;3.17;2.33;;;17.10;67.40;;;-142.21;100.00;112049.66;5072630;28;20577;-79
2022/05/22 05:45:59;;;;;;;2.33;2.07;;;17.10;67.60;;;-142.21;100.00;112049.66;5073839;28;20479;-78
2022/05/22 05:48:26;;;;;;;2.20;1.90;;;17.20;67.30;;;-142.21;100.00;112049.66;5073436;28;20447;-79
2022/05/22 05:50:55;;;;;;;2.63;1.90;;;17.20;67.10;;;-142.21;100.00;112049.66;5080004;28;20447;-77
2022/05/22 05:53:24;;;;;;;2.07;1.83;;;17.30;67.20;;;-142.21;100.00;112049.66;5085577;28;20499;-77
2022/05/22 05:55:51;;;;;;;3.40;2.03;;;17.40;66.80;;;-142.21;100.00;112049.66;5077522;28;20564;-78
2022/05/22 05:58:18;;;;;;;1.83;1.73;;;17.40;66.40;;;-142.21;100.00;112049.66;5073887;28;20807;-77
2022/05/22 06:00:47;;;;;;;2.80;1.80;;;17.50;66.00;;;-142.21;99.77;112049.66;5088410;28;20819;-77
2022/05/22 06:03:14;;;;;;;1.80;1.70;;;17.60;65.80;;;-142.21;100.00;112049.66;5088408;28;20456;-76
2022/05/22 06:05:41;;;;;;;2.10;1.90;;;17.70;66.30;;;-142.21;100.00;112049.66;5062295;28;20478;-77
2022/05/22 06:08:09;;;;;;;2.00;1.90;;;17.80;66.50;;;-142.21;100.00;112049.66;5073661;28;20443;-77
2022/05/22 06:10:38;;;;;;;3.00;2.00;;;17.90;66.90;;;-142.21;100.00;112049.66;5088960;28;20449;-78
2022/05/22 06:13:07;;;;;;;1.60;1.50;;;17.90;66.10;;;-142.21;100.00;112049.66;5077723;28;20789;-76
2022/05/22 06:15:35;;;;;;;1.80;1.70;;;18.00;66.70;;;-142.21;100.00;112049.66;5072693;28;20487;-78
2022/05/22 06:18:02;;;;;;;2.63;1.63;;;18.10;66.70;;;-142.21;100.00;112049.66;5075816;28;20452;-79
2022/05/22 06:20:30;;;;;;;2.83;1.63;;;18.10;66.20;;;-142.21;100.00;112049.66;5080275;28;20442;-79
2022/05/22 06:22:57;;;;;;;1.80;1.70;;;18.30;66.30;;;-142.21;100.00;112049.66;5093254;28;20458;-79
2022/05/22 06:25:24;;;;;;;2.40;1.80;;;18.40;66.10;;;-142.21;99.13;112049.66;5097169;28;20550;-77
2022/05/22 06:27:53;;;;;;;2.57;1.93;;;18.40;65.40;;;-142.21;98.88;112049.66;5104464;28;20455;-73
2022/05/22 06:30:22;;;;;;;1.73;1.63;;;18.50;64.90;;;-142.21;98.89;112049.66;5103436;28;20439;-76
2022/05/22 06:32:49;;;;;;;1.97;1.70;;;18.60;64.80;;;-142.21;99.29;112049.66;5088353;28;20800;-77
2022/05/22 06:35:17;;;;;;;2.27;1.73;;;18.70;65.10;;;-142.21;97.41;112049.66;5073094;28;20790;-78
2022/05/22 06:37:44;;;;;;;1.70;1.60;;;18.80;64.10;;;-142.21;96.06;112049.66;5072046;28;20446;-76
2022/05/22 06:40:11;;;;;;;1.70;1.60;;;19.00;63.40;;;-142.21;94.75;112049.66;5074396;28;20490;-74
2022/05/22 06:42:43;;;;;;;1.60;1.50;;;19.10;62.80;;;-142.21;94.06;112049.66;5074627;28;20444;-76
2022/05/22 06:45:15;;;;;;;2.93;1.50;;;19.20;62.10;;;-142.21;94.01;112049.66;5086708;28;20242;-78
2022/05/22 06:47:45;;;;;;;2.03;1.77;;;19.20;61.80;;;-142.21;92.34;112049.66;5080529;28;20446;-75
2022/05/22 06:50:16;;;;;;;1.50;1.40;;;19.30;61.30;;;-142.21;90.97;112049.66;5073144;28;20478;-76
2022/05/22 06:52:43;;;;;;;2.10;1.70;;;19.40;60.20;;;-142.21;90.64;112049.66;5070755;28;20630;-76
2022/05/22 06:55:13;;;;;;;1.60;1.50;;;19.50;60.10;;;-142.21;93.19;112049.66;5072870;28;20229;-76
2022/05/22 06:57:41;;;;;;;2.20;1.77;;;19.60;60.70;;;-142.21;94.38;112049.66;5089793;28;20468;-73
2022/05/22 07:00:18;;;;;;;1.63;1.53;;;19.80;62.70;;;-142.21;92.33;112049.66;5092827;28;20200;-75
2022/05/22 07:02:46;;;;;;;1.90;1.60;;;19.90;60.80;;;-142.21;90.13;112049.66;5066390;28;20689;-76
2022/05/22 07:05:14;;;;;;;2.83;1.80;;;20.00;59.80;;;-142.21;91.10;112049.66;5054344;28;21021;-77
2022/05/22 07:07:41;;;;;;;2.10;1.60;;;20.10;60.00;;;-142.21;92.50;112049.66;5053148;28;20198;-77
2022/05/22 07:10:10;;;;;;;3.77;1.90;;;20.30;60.70;;;-142.21;92.12;112049.66;5085390;28;20197;-76
2022/05/22 07:12:37;;;;;;;1.77;1.67;;;20.40;60.50;;;-142.21;92.90;112049.66;5070883;28;20211;-74
2022/05/22 07:15:07;;;;;;;2.00;1.80;;;20.50;60.80;;;-142.21;91.38;112049.66;5073522;28;20220;-74
2022/05/22 07:17:36;;;;;;;2.90;1.60;;;20.50;60.00;;;-142.21;92.04;112049.66;5079620;28;20531;-74
2022/05/22 07:20:03;;;;;;;3.43;1.90;;;20.60;60.20;;;-142.21;90.25;112049.66;5072067;28;20681;-74
2022/05/22 07:22:30;;;;;;;3.17;2.10;;;20.70;59.50;;;-142.21;90.56;112049.66;5091232;28;20444;-75
2022/05/22 07:24:58;;;;;;;2.33;2.13;;;20.80;59.50;;;-142.21;90.49;112049.66;5081319;28;20213;-74
2022/05/22 07:27:25;;;;;;;2.43;2.13;;;20.90;59.50;;;-142.21;90.78;112049.66;5059309;28;20285;-74
2022/05/22 07:29:52;;;;;;;4.23;2.13;;;20.90;59.80;;;-142.21;90.28;112049.66;5068100;28;20289;-74
2022/05/22 07:32:19;;;;;;;3.00;2.00;;;21.00;59.30;;;-142.21;89.06;112049.66;5072212;28;20205;-74
2022/05/22 07:34:49;;;;;;;2.10;1.90;;;21.10;58.90;;;-142.21;89.15;112049.66;5072057;28;20221;-74
2022/05/22 07:37:16;;;;;;;3.37;1.90;;;21.10;59.00;;;-142.21;88.42;112049.66;5071594;28;20201;-74
2022/05/22 07:39:44;;;;;;;2.30;1.90;;;21.30;58.60;;;-142.21;86.87;112049.66;5074197;28;20196;-74
2022/05/22 07:42:11;;;;;;;1.90;1.77;;;21.30;58.00;;;-142.21;86.82;112049.66;5071143;28;20688;-74
2022/05/22 07:44:40;;;;;;;2.27;2.00;;;21.40;58.10;;;-142.21;87.23;112049.66;5062424;28;20197;-74
2022/05/22 07:47:07;;;;;;;1.80;1.70;;;21.50;58.10;;;-142.21;87.41;112049.66;5073006;28;20208;-74
2022/05/22 07:52:21;;;;;;;2.80;2.00;;;21.70;58.00;;;-142.21;85.73;112049.66;5083584;28;20646;-74
2022/05/22 07:54:49;;;;;;;2.20;2.00;;;21.80;58.10;;;-142.21;87.02;112049.66;5073182;28;20690;-74
2022/05/22 07:57:16;;;;;;;2.77;1.80;;;22.00;58.30;;;-142.21;84.55;112049.66;5075127;28;20713;-74
2022/05/22 07:59:44;;;;;;;3.47;2.00;;;22.00;57.50;;;-142.21;85.25;112049.66;5074503;28;20201;-73
2022/05/22 08:02:13;;;;;;;1.70;1.60;;;22.10;57.60;;;-142.21;84.31;112049.66;5074920;28;20768;-73
2022/05/22 08:04:41;;;;;;;3.03;1.70;;;22.20;57.50;;;-142.21;84.18;112049.66;5092169;28;20228;-74
2022/05/22 08:07:08;;;;;;;3.03;1.90;;;22.40;57.40;;;-142.21;84.88;112049.66;5086452;28;20222;-74
2022/05/22 08:09:37;;;;;;;2.00;1.80;;;22.50;57.60;;;-142.21;86.30;112049.66;5093325;28;20253;-73
2022/05/22 08:12:06;;;;;;;2.53;1.93;;;22.60;58.10;;;-142.21;84.46;112049.66;5083898;28;20561;-73
2022/05/22 08:14:33;;;;;;;1.83;1.73;;;22.70;57.30;;;-142.21;81.90;112049.66;5075594;28;20255;-74
2022/05/22 08:17:01;;;;;;;2.00;1.73;;;22.90;56.80;;;-142.21;80.61;112049.66;5054450;28;20210;-74
2022/05/22 08:19:28;;;;;;;2.10;1.70;;;22.90;55.90;;;-142.21;76.11;112049.66;5056454;28;20244;-72
2022/05/22 08:21:55;;;;;;;2.27;1.77;;;22.90;54.70;;;-142.21;80.58;112049.66;5073016;28;20289;-72
2022/05/22 08:24:22;;;;;;;3.20;1.47;;;23.00;55.80;;;-142.21;78.41;112049.66;5075221;28;20281;-71
2022/05/22 08:26:52;;;;;;;1.70;1.60;;;23.10;56.10;;;-142.21;75.84;112049.66;5082103;28;20200;-73
2022/05/22 08:29:20;;;;;;;2.43;1.77;;;23.20;55.00;;;-142.21;77.07;112049.66;5095249;28;20541;-72
2022/05/22 08:31:47;;;;;;;2.93;1.60;;;23.40;54.90;;;-142.21;74.82;112049.66;5074478;28;20672;-73
2022/05/22 08:34:15;;;;;;;2.20;1.80;;;23.50;54.40;;;-142.21;72.87;112049.66;5073806;28;20224;-73
2022/05/22 08:36:42;;;;;;;2.10;1.50;;;23.50;53.70;;;-142.21;72.82;112049.66;5074444;28;20292;-71
2022/05/22 08:39:10;;;;;;;2.53;1.40;;;23.60;53.70;;;-142.21;73.99;112049.66;5079170;28;20296;-72
2022/05/22 08:41:46;;;;;;;2.30;1.83;;;23.70;53.90;;;-142.21;71.27;112049.66;5089976;28;20780;-72
2022/05/22 08:44:19;;;;;;;3.90;1.73;;;23.80;53.30;;;-142.21;69.08;112049.66;5073612;28;20790;-73
2022/05/22 08:47:01;;;;;;;2.73;1.90;;;24.00;52.90;;;-142.21;65.54;112049.66;5071279;28;20285;-73
2022/05/22 08:49:39;;;;;;;2.30;1.40;;;24.00;51.20;;;-142.21;64.79;112049.66;5075012;28;20189;-73
2022/05/22 08:52:17;;;;;;;3.33;1.70;;;24.10;51.50;;;-142.21;65.07;112049.66;5082664;28;20201;-73
2022/05/22 08:54:51;;;;;;;1.30;1.20;;;24.20;51.30;;;-142.21;63.02;112049.66;5084862;28;20212;-73
2022/05/22 09:00:13;;;;;;;2.57;1.50;;;24.40;51.60;;;-142.21;65.01;112049.66;5085576;28;20210;-72
2022/05/22 09:02:53;;;;;;;1.80;1.40;;;24.50;51.40;;;-142.21;63.71;112049.66;5072601;28;20208;-73
2022/05/22 09:05:25;;;;;;;2.40;1.40;;;24.60;51.20;;;-142.21;63.99;112049.66;5066591;28;20282;-73
2022/05/22 09:08:01;;;;;;;1.80;1.50;;;24.80;51.00;;;-142.21;56.42;112049.66;5086819;28;20193;-74
2022/05/22 09:10:50;;;;;;;2.10;1.60;;;24.90;49.20;;;-142.21;56.11;112049.66;5075716;28;20628;-72
2022/05/22 09:13:30;;;;;;;2.50;1.63;;;24.90;48.80;;;-142.21;59.21;112049.66;5083764;28;20195;-73
2022/05/22 09:16:11;;;;;;;2.30;1.53;;;24.90;49.70;;;-142.21;62.57;112049.66;5073732;28;20213;-72
2022/05/22 09:18:48;;;;;;;2.37;1.67;;;25.10;50.70;;;-142.21;55.24;112049.66;5053430;28;20232;-73
2022/05/22 09:21:30;;;;;;;3.40;1.70;;;25.30;49.10;;;-142.21;54.80;112049.66;5055665;28;20283;-74
2022/05/22 09:24:01;;;;;;;4.03;1.50;;;25.30;48.50;;;-142.21;52.92;112049.66;5070175;28;20295;-74
2022/05/22 09:26:48;;;;;;;1.77;1.20;;;25.40;48.10;;;-142.21;57.34;112049.66;5074471;28;20301;-72
2022/05/22 09:29:46;;;;;;;1.97;1.60;;;25.50;48.80;;;-142.21;54.74;112049.66;5073222;28;20209;-72
2022/05/22 09:32:32;;;;;;;3.13;1.60;;;25.70;48.30;;;-142.21;52.56;112049.66;5081732;28;20224;-73
2022/05/22 09:35:18;;;;;;;2.07;1.10;;;25.80;47.40;;;-142.21;46.52;112049.66;5093692;28;20212;-73
2022/05/22 09:38:06;;;;;;;1.57;1.27;;;25.90;46.50;;;-142.21;50.60;112049.66;5041493;28;20208;-74
2022/05/22 09:40:44;;;;;;;3.20;1.60;;;26.10;46.90;;;-142.21;51.61;112049.66;5067811;28;20190;-71
2022/05/22 09:43:50;;;;;;;2.73;1.10;;;26.30;47.50;;;-142.21;47.42;112049.66;5092359;28;20643;-72
2022/05/22 09:46:50;;;;;;;2.33;1.20;;;26.40;45.20;;;-142.21;45.82;112049.66;5071248;28;20208;-73
2022/05/22 09:49:41;;;;;;;3.50;1.73;;;26.60;44.00;;;-142.21;45.59;112049.66;5051390;28;20637;-72
2022/05/22 09:52:24;;;;;;;1.43;1.03;;;26.70;44.90;;;-142.21;45.18;112049.66;5081755;28;20217;-73
2022/05/22 09:55:25;;;;;;;1.80;1.20;;;26.80;44.80;;;-142.21;44.91;112049.66;5087401;28;20219;-73
2022/05/22 09:58:23;;;;;;;2.07;1.63;;;26.80;44.60;;;-142.21;43.63;112049.66;5083261;28;20265;-72
2022/05/22 10:00:59;;;;;;;3.47;1.30;;;26.90;43.80;;;-142.21;44.56;112049.66;5078908;28;20264;-71
2022/05/22 10:03:40;;;;;;;1.87;1.40;;;26.90;44.20;;;-142.21;47.00;112049.66;5074811;28;20204;-71
2022/05/22 10:06:21;;;;;;;1.80;1.53;;;27.00;45.10;;;-142.21;48.44;112049.66;5080200;28;20220;-71
2022/05/22 10:09:00;;;;;;;3.70;1.50;;;27.00;45.60;;;-142.21;49.99;112049.66;5082501;28;20642;-71
2022/05/22 10:11:39;;;;;;;2.77;1.40;;;27.20;46.30;;;-142.21;51.47;112049.66;5059881;28;20542;-72
2022/05/22 10:14:32;;;;;;;1.40;1.30;;;27.40;46.90;;;-142.21;45.54;112049.66;5070454;28;20249;-71
2022/05/22 10:17:20;;;;;;;1.93;1.50;;;27.40;44.20;;;-142.21;46.57;112049.66;5075127;28;20189;-72
2022/05/22 10:20:03;;;;;;;2.40;1.47;;;27.40;44.70;;;-142.21;45.73;112049.66;5077257;28;20230;-72
2022/05/22 10:23:00;;;;;;;2.17;1.50;;;27.40;44.40;;;-142.21;48.75;112049.66;5070078;28;20197;-72
2022/05/22 10:25:42;;;;;;;2.67;1.40;;;27.50;45.40;;;-142.21;47.35;112049.66;5071555;28;20230;-72